sensor_id;sensor_type;location;lat;lon;timestamp;temperature;humidity
51902;DHT22;37929;53.218;6.548;2022-10-16T16:52:20;13.90;99.90
51902;DHT22;37929;53.218;6.548;2022-10-16T16:54:47;13.90;99.90
51902;DHT22;37929;53.218;6.548;2022-10-16T16:57:20;13.90;99.90
51902;DHT22;37929;53.218;6.548;2022-10-16T16:59:46;13.90;99.90
51902;DHT22;37929;53.218;6.548;2022-10-16T17:02:12;13.80;99.90
51902;DHT22;37929;53.218;6.548;2022-10-16T17:04:38;13.80;99.90
51902;DHT22;37929;53.218;6.548;2022-10-16T17:07:04;13.80;99.90
51902;DHT22;37929;53.218;6.548;2022-10-16T17:09:32;13.90;99.90
51902;DHT22;37929;53.218;6.548;2022-10-16T17:11:58;13.80;99.90
51902;DHT22;37929;53.218;6.548;2022-10-16T17:14:24;13.80;99.90
51902;DHT22;37929;53.218;6.548;2022-10-16T17:16:51;13.70;99.90
51902;DHT22;37929;53.218;6.548;2022-10-16T17:19:18;13.70;99.90
51902;DHT22;37929;53.218;6.548;2022-10-16T17:21:47;13.70;99.90
51902;DHT22;37929;53.218;6.548;2022-10-16T17:24:13;13.70;99.90
51902;DHT22;37929;53.218;6.548;2022-10-16T17:26:39;13.70;99.90
51902;DHT22;37929;53.218;6.548;2022-10-16T17:29:11;13.80;99.90
51902;DHT22;37929;53.218;6.548;2022-10-16T17:31:37;13.70;99.90
51902;DHT22;37929;53.218;6.548;2022-10-16T17:34:06;13.70;99.90
51902;DHT22;37929;53.218;6.548;2022-10-16T17:36:34;13.70;99.90
51902;DHT22;37929;53.218;6.548;2022-10-16T17:39:01;13.80;99.90
51902;DHT22;37929;53.218;6.548;2022-10-16T17:41:29;13.70;99.90
51902;DHT22;37929;53.218;6.548;2022-10-16T17:43:55;13.70;99.90
51902;DHT22;37929;53.218;6.548;2022-10-16T17:46:22;13.70;99.90
51902;DHT22;37929;53.218;6.548;2022-10-16T17:48:50;13.70;99.90
51902;DHT22;37929;53.218;6.548;2022-10-16T17:51:18;13.70;99.90
51902;DHT22;37929;53.218;6.548;2022-10-16T17:53:48;13.70;99.90
51902;DHT22;37929;53.218;6.548;2022-10-16T17:56:14;13.70;99.90
51902;DHT22;37929;53.218;6.548;2022-10-16T17:58:41;13.60;99.90
51902;DHT22;37929;53.218;6.548;2022-10-16T18:01:16;13.60;99.90
51902;DHT22;37929;53.218;6.548;2022-10-16T18:03:42;13.60;99.90
51902;DHT22;37929;53.218;6.548;2022-10-16T18:06:08;13.50;99.90
51902;DHT22;37929;53.218;6.548;2022-10-16T18:08:34;13.50;99.90
51902;DHT22;37929;53.218;6.548;2022-10-16T18:11:03;13.50;99.90
51902;DHT22;37929;53.218;6.548;2022-10-16T18:13:30;13.50;99.90
51902;DHT22;37929;53.218;6.548;2022-10-16T18:16:04;13.50;99.90
51902;DHT22;37929;53.218;6.548;2022-10-16T18:18:30;13.50;99.90
51902;DHT22;37929;53.218;6.548;2022-10-16T18:21:00;13.40;99.90
51902;DHT22;37929;53.218;6.548;2022-10-16T18:23:27;13.40;99.90
51902;DHT22;37929;53.218;6.548;2022-10-16T18:25:53;13.40;99.90
51902;DHT22;37929;53.218;6.548;2022-10-16T18:28:19;13.30;99.90
51902;DHT22;37929;53.218;6.548;2022-10-16T18:30:54;13.30;99.90
51902;DHT22;37929;53.218;6.548;2022-10-16T18:33:19;13.30;99.90
51902;DHT22;37929;53.218;6.548;2022-10-16T18:35:45;13.30;99.90
51902;DHT22;37929;53.218;6.548;2022-10-16T18:38:11;13.30;99.90
51902;DHT22;37929;53.218;6.548;2022-10-16T18:40:40;13.30;99.90
51902;DHT22;37929;53.218;6.548;2022-10-16T18:43:06;13.40;99.90
51902;DHT22;37929;53.218;6.548;2022-10-16T18:45:35;13.30;99.90
51902;DHT22;37929;53.218;6.548;2022-10-16T18:48:01;13.30;99.90
51902;DHT22;37929;53.218;6.548;2022-10-16T18:50:27;13.30;99.90
51902;DHT22;37929;53.218;6.548;2022-10-16T18:52:56;13.30;99.90
51902;DHT22;37929;53.218;6.548;2022-10-16T18:55:22;13.30;99.90
51902;DHT22;37929;53.218;6.548;2022-10-16T18:57:49;13.30;99.90
51902;DHT22;37929;53.218;6.548;2022-10-16T19:00:15;13.30;99.90
51902;DHT22;37929;53.218;6.548;2022-10-16T19:02:48;13.30;99.90
51902;DHT22;37929;53.218;6.548;2022-10-16T19:05:14;13.20;99.90
51902;DHT22;37929;53.218;6.548;2022-10-16T19:07:40;13.20;99.90
51902;DHT22;37929;53.218;6.548;2022-10-16T19:10:09;13.20;99.90
51902;DHT22;37929;53.218;6.548;2022-10-16T19:12:34;13.20;99.90
51902;DHT22;37929;53.218;6.548;2022-10-16T19:15:00;13.20;99.90
51902;DHT22;37929;53.218;6.548;2022-10-16T19:17:26;13.20;99.90
51902;DHT22;37929;53.218;6.548;2022-10-16T19:19:52;13.20;99.90
51902;DHT22;37929;53.218;6.548;2022-10-16T19:22:21;13.20;99.90
51902;DHT22;37929;53.218;6.548;2022-10-16T19:24:57;13.20;99.90
51902;DHT22;37929;53.218;6.548;2022-10-16T19:27:26;13.20;99.90
51902;DHT22;37929;53.218;6.548;2022-10-16T19:29:52;13.20;99.90
51902;DHT22;37929;53.218;6.548;2022-10-16T19:32:17;13.20;99.90
51902;DHT22;37929;53.218;6.548;2022-10-16T19:34:43;13.20;99.90
51902;DHT22;37929;53.218;6.548;2022-10-16T19:37:10;13.20;99.90
51902;DHT22;37929;53.218;6.548;2022-10-16T19:39:36;13.20;99.90
51902;DHT22;37929;53.218;6.548;2022-10-16T19:42:02;13.10;99.90
51902;DHT22;37929;53.218;6.548;2022-10-16T19:44:27;13.10;99.90
51902;DHT22;37929;53.218;6.548;2022-10-16T19:46:54;13.10;99.90
51902;DHT22;37929;53.218;6.548;2022-10-16T19:49:19;13.10;99.90
51902;DHT22;37929;53.218;6.548;2022-10-16T19:51:48;13.10;99.90
51902;DHT22;37929;53.218;6.548;2022-10-16T19:54:19;13.10;99.90
51902;DHT22;37929;53.218;6.548;2022-10-16T19:56:47;13.10;99.90
51902;DHT22;37929;53.218;6.548;2022-10-16T19:59:13;13.20;99.90
51902;DHT22;37929;53.218;6.548;2022-10-16T20:01:43;13.20;99.90
51902;DHT22;37929;53.218;6.548;2022-10-16T20:04:10;13.20;99.90
51902;DHT22;37929;53.218;6.548;2022-10-16T20:06:37;13.30;99.90
51902;DHT22;37929;53.218;6.548;2022-10-16T20:09:04;13.30;99.90
51902;DHT22;37929;53.218;6.548;2022-10-16T20:11:32;13.30;99.90
51902;DHT22;37929;53.218;6.548;2022-10-16T20:13:59;13.30;99.90
51902;DHT22;37929;53.218;6.548;2022-10-16T20:16:26;13.30;99.90
51902;DHT22;37929;53.218;6.548;2022-10-16T20:18:53;13.30;99.90
51902;DHT22;37929;53.218;6.548;2022-10-16T20:21:21;13.30;99.90
51902;DHT22;37929;53.218;6.548;2022-10-16T20:23:47;13.40;99.90
51902;DHT22;37929;53.218;6.548;2022-10-16T20:26:14;13.40;99.90
51902;DHT22;37929;53.218;6.548;2022-10-16T20:28:41;13.40;99.90
51902;DHT22;37929;53.218;6.548;2022-10-16T20:31:16;13.40;99.90
51902;DHT22;37929;53.218;6.548;2022-10-16T20:33:44;13.40;99.90
51902;DHT22;37929;53.218;6.548;2022-10-16T20:36:14;13.30;99.90
51902;DHT22;37929;53.218;6.548;2022-10-16T20:38:41;13.30;99.90
51902;DHT22;37929;53.218;6.548;2022-10-16T20:41:07;13.30;99.90
51902;DHT22;37929;53.218;6.548;2022-10-16T20:43:35;13.30;99.90
51902;DHT22;37929;53.218;6.548;2022-10-16T20:46:03;13.30;99.90
51902;DHT22;37929;53.218;6.548;2022-10-16T20:48:30;13.30;99.90
51902;DHT22;37929;53.218;6.548;2022-10-16T20:50:56;13.30;99.90
51902;DHT22;37929;53.218;6.548;2022-10-16T20:53:24;13.30;99.90
51902;DHT22;37929;53.218;6.548;2022-10-16T20:55:53;13.30;99.90
51902;DHT22;37929;53.218;6.548;2022-10-16T20:58:19;13.40;99.90
51902;DHT22;37929;53.218;6.548;2022-10-16T21:00:45;13.30;99.90
51902;DHT22;37929;53.218;6.548;2022-10-16T21:03:13;13.30;99.90
51902;DHT22;37929;53.218;6.548;2022-10-16T21:05:40;13.30;99.90
51902;DHT22;37929;53.218;6.548;2022-10-16T21:08:06;13.40;99.90
51902;DHT22;37929;53.218;6.548;2022-10-16T21:10:32;13.40;99.90
51902;DHT22;37929;53.218;6.548;2022-10-16T21:12:58;13.40;99.90
51902;DHT22;37929;53.218;6.548;2022-10-16T21:15:24;13.30;99.90
51902;DHT22;37929;53.218;6.548;2022-10-16T21:17:50;13.40;99.90
51902;DHT22;37929;53.218;6.548;2022-10-16T21:20:16;13.40;99.90
51902;DHT22;37929;53.218;6.548;2022-10-16T21:22:42;13.30;99.90
51902;DHT22;37929;53.218;6.548;2022-10-16T21:25:08;13.40;99.90
51902;DHT22;37929;53.218;6.548;2022-10-16T21:27:38;13.40;99.90
51902;DHT22;37929;53.218;6.548;2022-10-16T21:30:05;13.40;99.90
51902;DHT22;37929;53.218;6.548;2022-10-16T21:32:37;13.40;99.90
51902;DHT22;37929;53.218;6.548;2022-10-16T21:35:05;13.30;99.90
51902;DHT22;37929;53.218;6.548;2022-10-16T21:37:31;13.40;99.90
51902;DHT22;37929;53.218;6.548;2022-10-16T21:39:57;13.40;99.90
51902;DHT22;37929;53.218;6.548;2022-10-16T21:42:24;13.40;99.90
51902;DHT22;37929;53.218;6.548;2022-10-16T21:44:49;13.40;99.90
51902;DHT22;37929;53.218;6.548;2022-10-16T21:47:15;13.40;99.90
51902;DHT22;37929;53.218;6.548;2022-10-16T21:49:41;13.50;99.90
51902;DHT22;37929;53.218;6.548;2022-10-16T21:52:07;13.50;99.90
51902;DHT22;37929;53.218;6.548;2022-10-16T21:54:35;13.50;99.90
51902;DHT22;37929;53.218;6.548;2022-10-16T21:57:00;13.40;99.90
51902;DHT22;37929;53.218;6.548;2022-10-16T21:59:26;13.60;99.90
51902;DHT22;37929;53.218;6.548;2022-10-16T22:01:52;13.40;99.90
51902;DHT22;37929;53.218;6.548;2022-10-16T22:04:18;13.40;99.90
51902;DHT22;37929;53.218;6.548;2022-10-16T22:06:44;13.40;99.90
51902;DHT22;37929;53.218;6.548;2022-10-16T22:09:11;13.40;99.90
51902;DHT22;37929;53.218;6.548;2022-10-16T22:11:39;13.40;99.90
51902;DHT22;37929;53.218;6.548;2022-10-16T22:14:17;13.40;99.90
51902;DHT22;37929;53.218;6.548;2022-10-16T22:16:43;13.30;99.90
51902;DHT22;37929;53.218;6.548;2022-10-16T22:19:11;13.30;99.90
51902;DHT22;37929;53.218;6.548;2022-10-16T22:21:39;13.30;99.90
51902;DHT22;37929;53.218;6.548;2022-10-16T22:24:05;13.30;99.90
51902;DHT22;37929;53.218;6.548;2022-10-16T22:26:32;13.60;99.90
51902;DHT22;37929;53.218;6.548;2022-10-16T22:28:58;13.30;99.90
51902;DHT22;37929;53.218;6.548;2022-10-16T22:31:24;13.30;99.90
51902;DHT22;37929;53.218;6.548;2022-10-16T22:33:57;13.30;99.90
51902;DHT22;37929;53.218;6.548;2022-10-16T22:36:24;13.30;99.90
51902;DHT22;37929;53.218;6.548;2022-10-16T22:38:50;13.30;99.90
51902;DHT22;37929;53.218;6.548;2022-10-16T22:41:16;13.30;99.90
51902;DHT22;37929;53.218;6.548;2022-10-16T22:43:44;13.30;99.90
51902;DHT22;37929;53.218;6.548;2022-10-16T22:46:15;13.30;99.90
51902;DHT22;37929;53.218;6.548;2022-10-16T22:48:41;13.30;99.90
51902;DHT22;37929;53.218;6.548;2022-10-16T22:51:08;13.30;99.90
51902;DHT22;37929;53.218;6.548;2022-10-16T22:53:34;13.30;99.90
51902;DHT22;37929;53.218;6.548;2022-10-16T22:56:01;13.30;99.90
51902;DHT22;37929;53.218;6.548;2022-10-16T22:58:27;13.30;99.90
51902;DHT22;37929;53.218;6.548;2022-10-16T23:00:53;13.30;99.90
51902;DHT22;37929;53.218;6.548;2022-10-16T23:03:19;13.30;99.90
51902;DHT22;37929;53.218;6.548;2022-10-16T23:05:44;13.30;99.90
51902;DHT22;37929;53.218;6.548;2022-10-16T23:08:11;13.30;99.90
51902;DHT22;37929;53.218;6.548;2022-10-16T23:10:41;13.40;99.90
51902;DHT22;37929;53.218;6.548;2022-10-16T23:13:08;13.30;99.90
51902;DHT22;37929;53.218;6.548;2022-10-16T23:15:34;13.30;99.90
51902;DHT22;37929;53.218;6.548;2022-10-16T23:18:00;13.30;99.90
51902;DHT22;37929;53.218;6.548;2022-10-16T23:20:25;13.30;99.90
51902;DHT22;37929;53.218;6.548;2022-10-16T23:22:51;13.30;99.90
51902;DHT22;37929;53.218;6.548;2022-10-16T23:25:17;13.30;99.90
51902;DHT22;37929;53.218;6.548;2022-10-16T23:27:43;13.30;99.90
51902;DHT22;37929;53.218;6.548;2022-10-16T23:30:08;13.30;99.90
51902;DHT22;37929;53.218;6.548;2022-10-16T23:32:34;13.30;99.90
51902;DHT22;37929;53.218;6.548;2022-10-16T23:35:00;13.30;99.90
51902;DHT22;37929;53.218;6.548;2022-10-16T23:37:26;13.30;99.90
51902;DHT22;37929;53.218;6.548;2022-10-16T23:39:52;13.30;99.90
51902;DHT22;37929;53.218;6.548;2022-10-16T23:42:18;13.30;99.90
51902;DHT22;37929;53.218;6.548;2022-10-16T23:44:44;13.30;99.90
51902;DHT22;37929;53.218;6.548;2022-10-16T23:47:10;13.30;99.90
51902;DHT22;37929;53.218;6.548;2022-10-16T23:49:36;13.30;99.90
51902;DHT22;37929;53.218;6.548;2022-10-16T23:52:02;13.20;99.90
51902;DHT22;37929;53.218;6.548;2022-10-16T23:54:28;13.20;99.90
51902;DHT22;37929;53.218;6.548;2022-10-16T23:56:54;13.20;99.90
51902;DHT22;37929;53.218;6.548;2022-10-16T23:59:20;13.20;99.90
